createdAt,value
2023-05-14T00:02:29.902Z,55.15
2023-05-14T00:05:08.024Z,56.45
2023-05-14T00:07:40.589Z,57.25
2023-05-14T00:10:11.402Z,58.64
2023-05-14T00:12:41.741Z,59.31
2023-05-14T00:15:12.232Z,59.55
2023-05-14T00:17:43.980Z,59.45
2023-05-14T00:20:14.719Z,59.71
2023-05-14T00:22:54.219Z,61.44
2023-05-14T00:25:27.795Z,62.89
2023-05-14T00:27:58.244Z,62.89
2023-05-14T00:30:28.676Z,64.11
2023-05-14T00:32:59.917Z,64.64
2023-05-14T00:35:34.896Z,66.25
2023-05-14T00:38:05.664Z,66.80
2023-05-14T00:40:45.318Z,67.30
2023-05-14T00:43:36.785Z,68.71
2023-05-14T00:46:11.911Z,65.26
2023-05-14T00:48:42.380Z,66.15
2023-05-14T00:51:16.316Z,67.25
2023-05-14T00:54:09.635Z,64.80
2023-05-14T00:56:48.368Z,65.26
2023-05-14T01:16:39.290Z,67.53
2023-05-14T01:31:38.178Z,64.18
2023-05-14T01:37:17.824Z,65.69
2023-05-14T01:39:59.705Z,68.65
2023-05-14T01:42:32.423Z,66.44
2023-05-14T01:45:03.610Z,67.44
2023-05-14T01:47:34.352Z,67.44
2023-05-14T01:50:05.023Z,68.13
2023-05-14T01:52:36.885Z,68.55
2023-05-14T01:55:07.991Z,68.55
2023-05-14T01:57:44.203Z,69.95
2023-05-14T02:00:15.602Z,69.95
2023-05-14T02:02:46.626Z,69.66
2023-05-14T02:05:17.486Z,69.86
2023-05-14T02:07:49.836Z,69.73
2023-05-14T02:10:20.037Z,70.44
2023-05-14T02:12:50.413Z,69.48
2023-05-14T02:15:20.711Z,69.58
2023-05-14T02:17:51.136Z,70.30
2023-05-14T02:20:21.709Z,71.39
2023-05-14T02:22:52.338Z,70.83
2023-05-14T02:25:22.709Z,73.52
2023-05-14T02:27:53.195Z,72.30
2023-05-14T02:30:26.123Z,72.30
2023-05-14T02:33:43.759Z,70.20
2023-05-14T02:35:33.069Z,70.20
2023-05-14T02:38:04.190Z,70.87
2023-05-14T02:50:20.213Z,71.49
2023-05-14T02:52:53.586Z,71.52
2023-05-14T02:55:56.661Z,71.69
2023-05-14T02:58:24.649Z,71.69
2023-05-14T03:01:14.641Z,71.60
2023-05-14T03:03:40.068Z,72.43
2023-05-14T03:06:12.506Z,71.21
2023-05-14T03:14:37.124Z,70.89
2023-05-14T03:17:19.351Z,71.12
2023-05-14T03:19:52.766Z,71.12
2023-05-14T03:22:31.526Z,68.16
2023-05-14T03:25:17.073Z,68.97
2023-05-14T03:27:54.829Z,71.02
2023-05-14T03:33:38.528Z,67.56
2023-05-14T03:36:11.859Z,66.90
2023-05-14T03:38:47.428Z,64.32
2023-05-14T03:41:24.422Z,62.78
2023-05-14T03:43:59.652Z,61.05
2023-05-14T03:46:47.154Z,61.32
2023-05-14T03:49:20.146Z,60.95
2023-05-14T03:52:10.080Z,57.65
2023-05-14T03:54:43.078Z,57.65
2023-05-14T03:57:34.250Z,63.85
2023-05-14T04:00:08.453Z,63.85
2023-05-14T04:02:39.407Z,60.84
2023-05-14T04:05:32.243Z,57.20
2023-05-14T04:08:03.492Z,55.45
2023-05-14T04:10:35.533Z,55.45
2023-05-14T04:13:09.465Z,54.50
2023-05-14T04:15:46.079Z,58.91
2023-05-14T04:18:21.183Z,56.29
2023-05-14T04:20:53.960Z,56.29
2023-05-14T04:23:55.131Z,59.18
2023-05-14T04:26:14.975Z,53.71
2023-05-14T04:29:07.988Z,53.92
2023-05-14T04:31:45.310Z,52.37
2023-05-14T04:34:15.741Z,54.76
2023-05-14T04:36:47.772Z,54.76
2023-05-14T04:39:18.166Z,49.37
2023-05-14T04:41:48.699Z,51.34
2023-05-14T04:44:24.660Z,53.20
2023-05-14T04:46:55.127Z,50.99
2023-05-14T04:49:27.997Z,50.99
2023-05-14T04:52:06.291Z,56.72
2023-05-14T04:54:38.266Z,53.37
2023-05-14T05:00:13.491Z,51.39
2023-05-14T05:03:04.366Z,52.04
2023-05-14T05:09:44.453Z,48.59
2023-05-14T05:11:33.157Z,47.31
2023-05-14T05:14:17.999Z,49.13
2023-05-14T05:16:52.166Z,49.13
2023-05-14T05:19:35.847Z,49.72
2023-05-14T05:21:56.423Z,48.61
2023-05-14T05:24:26.763Z,49.19
2023-05-14T05:26:57.674Z,49.20
2023-05-14T05:29:28.054Z,45.99
2023-05-14T05:31:58.795Z,45.99
2023-05-14T05:34:29.385Z,48.92
2023-05-14T05:37:02.809Z,46.15
2023-05-14T05:39:33.501Z,45.02
2023-05-14T05:42:05.477Z,45.02
2023-05-14T05:44:44.678Z,44.74
2023-05-14T05:47:15.236Z,44.74
2023-05-14T05:49:55.206Z,43.63
2023-05-14T05:52:27.267Z,42.45
2023-05-14T05:55:03.205Z,42.39
2023-05-14T05:57:35.779Z,41.76
2023-05-14T06:00:15.324Z,41.76
2023-05-14T06:02:52.067Z,38.83
2023-05-14T06:05:21.665Z,38.83
2023-05-14T06:07:53.324Z,38.34
2023-05-14T06:10:24.278Z,40.79
2023-05-14T06:12:55.183Z,40.79
2023-05-14T06:15:25.788Z,37.87
2023-05-14T06:17:56.274Z,37.87
2023-05-14T06:20:28.399Z,40.74
2023-05-14T06:22:59.003Z,37.62
2023-05-14T06:25:30.793Z,37.62
2023-05-14T06:28:01.850Z,38.21
2023-05-14T06:30:32.613Z,40.10
2023-05-14T06:33:03.267Z,40.35
2023-05-14T06:35:34.500Z,41.46
2023-05-14T06:38:05.336Z,40.86
2023-05-14T06:40:35.628Z,40.86
2023-05-14T06:43:06.007Z,39.97
2023-05-14T06:45:36.669Z,39.15
2023-05-14T06:48:07.228Z,39.15
2023-05-14T06:50:39.134Z,38.72
2023-05-14T06:53:09.457Z,34.72
2023-05-14T06:55:42.047Z,32.98
2023-05-14T06:58:14.092Z,32.20
2023-05-14T07:00:44.692Z,32.71
2023-05-14T07:03:15.087Z,32.55
2023-05-14T07:05:45.847Z,30.60
2023-05-14T07:08:16.444Z,31.05
2023-05-14T07:10:47.154Z,28.87
2023-05-14T07:13:20.550Z,28.96
2023-05-14T07:15:50.819Z,29.73
2023-05-14T07:18:22.015Z,29.73
2023-05-14T07:20:52.291Z,30.07
2023-05-14T07:23:22.939Z,29.03
2023-05-14T07:25:53.474Z,29.03
2023-05-14T07:28:25.389Z,28.55
2023-05-14T07:30:57.668Z,28.55
2023-05-14T07:33:28.253Z,27.34
2023-05-14T07:35:58.759Z,27.82
2023-05-14T07:38:29.066Z,26.44
2023-05-14T07:40:59.374Z,27.52
2023-05-14T07:43:29.823Z,27.02
2023-05-14T07:46:00.350Z,27.02
2023-05-14T07:48:31.079Z,26.94
2023-05-14T07:51:01.646Z,27.25
2023-05-14T07:53:36.765Z,27.25
2023-05-14T07:56:09.448Z,26.69
2023-05-14T07:58:43.336Z,26.69
2023-05-14T08:01:13.643Z,26.12
2023-05-14T08:03:44.251Z,26.12
2023-05-14T08:06:14.702Z,27.27
2023-05-14T08:08:45.703Z,27.27
2023-05-14T08:11:18.810Z,25.54
2023-05-14T08:13:52.144Z,25.50
2023-05-14T08:16:24.450Z,25.45
2023-05-14T08:18:56.364Z,24.73
2023-05-14T08:21:27.464Z,24.22
2023-05-14T08:23:57.731Z,24.22
2023-05-14T08:26:28.194Z,24.89
2023-05-14T08:28:58.636Z,24.12
2023-05-14T08:31:31.944Z,25.87
2023-05-14T08:34:03.864Z,25.10
2023-05-14T08:36:34.277Z,23.78
2023-05-14T08:39:04.726Z,24.65
2023-05-14T08:41:40.066Z,24.65
2023-05-14T08:44:37.853Z,25.31
2023-05-14T08:47:08.633Z,23.43
2023-05-14T08:49:43.883Z,25.16
2023-05-14T08:52:16.274Z,23.87
2023-05-14T08:54:48.506Z,22.07
2023-05-14T08:57:20.419Z,22.99
2023-05-14T08:59:54.641Z,22.99
2023-05-14T09:02:29.046Z,23.30
2023-05-14T09:05:12.501Z,25.30
2023-05-14T09:07:43.492Z,26.12
2023-05-14T09:10:15.410Z,26.12
2023-05-14T09:12:46.189Z,28.12
2023-05-14T09:15:16.889Z,24.93
2023-05-14T09:17:47.624Z,24.93
2023-05-14T09:20:18.314Z,23.99
2023-05-14T09:22:50.092Z,23.83
2023-05-14T09:25:20.379Z,23.21
2023-05-14T09:27:53.238Z,24.31
2023-05-14T09:30:24.576Z,23.58
2023-05-14T09:32:56.065Z,23.58
2023-05-14T09:35:26.682Z,23.63
2023-05-14T09:37:57.045Z,23.90
2023-05-14T09:40:28.017Z,23.07
2023-05-14T09:42:58.576Z,22.64
2023-05-14T09:45:30.150Z,24.78
2023-05-14T09:48:06.808Z,23.02
2023-05-14T09:50:45.292Z,23.02
2023-05-14T09:53:15.712Z,21.66
2023-05-14T09:55:46.580Z,23.73
2023-05-14T09:58:18.129Z,23.73
2023-05-14T10:00:48.977Z,24.26
2023-05-14T10:03:26.644Z,22.45
2023-05-14T10:06:00.133Z,24.25
2023-05-14T10:08:39.795Z,24.15
2023-05-14T10:11:13.175Z,23.84
2023-05-14T10:13:46.455Z,23.84
2023-05-14T10:16:31.595Z,23.28
2023-05-14T10:19:12.508Z,23.28
2023-05-14T10:21:59.382Z,22.10
2023-05-14T10:24:33.520Z,24.33
2023-05-14T10:27:04.777Z,23.47
2023-05-14T10:29:36.549Z,23.18
2023-05-14T10:32:13.298Z,23.18
2023-05-14T10:34:42.680Z,20.74
2023-05-14T10:37:24.515Z,21.30
2023-05-14T10:40:11.282Z,23.93
2023-05-14T10:42:36.065Z,24.79
2023-05-14T10:45:16.072Z,23.99
2023-05-14T10:47:48.870Z,23.99
2023-05-14T10:50:22.261Z,22.17
2023-05-14T10:52:53.216Z,23.39
2023-05-14T10:55:23.528Z,22.17
2023-05-14T10:57:53.890Z,21.24
2023-05-14T11:00:26.083Z,21.24
2023-05-14T11:02:57.312Z,21.71
2023-05-14T11:05:31.227Z,21.71
2023-05-14T11:08:04.576Z,20.94
2023-05-14T11:10:36.222Z,22.10
2023-05-14T11:13:07.027Z,22.10
2023-05-14T11:15:41.095Z,22.60
2023-05-14T11:18:14.304Z,22.56
2023-05-14T11:20:45.919Z,22.56
2023-05-14T11:23:31.506Z,23.39
2023-05-14T11:26:02.301Z,22.15
2023-05-14T11:28:34.434Z,22.15
2023-05-14T11:31:06.809Z,23.57
2023-05-14T11:33:37.161Z,23.57
2023-05-14T11:36:12.808Z,21.50
2023-05-14T11:38:50.781Z,21.50
2023-05-14T11:41:21.114Z,23.02
2023-05-14T11:43:54.236Z,24.73
2023-05-14T11:46:29.127Z,24.73
2023-05-14T11:49:10.378Z,25.66
2023-05-14T11:51:45.038Z,31.04
2023-05-14T11:54:15.325Z,31.04
2023-05-14T11:56:56.540Z,27.84
2023-05-14T11:59:29.134Z,31.26
2023-05-14T12:01:59.965Z,31.26
2023-05-14T12:04:33.167Z,27.87
2023-05-14T12:07:11.035Z,29.98
2023-05-14T12:09:45.299Z,31.75
2023-05-14T12:12:26.055Z,31.75
2023-05-14T12:14:59.346Z,31.84
2023-05-14T12:17:29.630Z,39.63
2023-05-14T12:20:10.841Z,39.63
2023-05-14T12:22:45.429Z,37.59
2023-05-14T12:25:15.306Z,33.42
2023-05-14T12:27:46.202Z,30.42
2023-05-14T12:30:34.260Z,30.42
2023-05-14T12:32:49.427Z,24.82
2023-05-14T12:35:21.446Z,23.23
2023-05-14T12:38:18.130Z,23.23
2023-05-14T12:40:41.501Z,22.12
2023-05-14T12:43:22.920Z,21.18
2023-05-14T12:45:53.236Z,21.18
2023-05-14T12:48:23.624Z,22.17
2023-05-14T12:51:04.774Z,22.05
2023-05-14T12:53:38.242Z,22.05
2023-05-14T12:59:02.469Z,21.42
2023-05-14T13:01:34.452Z,22.58
2023-05-14T13:04:11.058Z,22.58
2023-05-14T13:06:41.711Z,22.20
2023-05-14T13:09:18.745Z,22.63
2023-05-14T13:11:50.782Z,25.72
2023-05-14T13:14:21.645Z,25.72
2023-05-14T13:16:58.734Z,28.99
2023-05-14T13:19:33.257Z,34.93
2023-05-14T13:22:05.019Z,32.56
2023-05-14T13:24:37.269Z,32.56
2023-05-14T13:27:13.266Z,31.95
2023-05-14T13:29:48.230Z,36.28
2023-05-14T13:32:27.389Z,30.17
2023-05-14T13:35:09.770Z,30.63
2023-05-14T13:37:43.846Z,30.32
2023-05-14T13:40:20.856Z,31.15
2023-05-14T13:42:57.011Z,31.15
2023-05-14T13:45:34.311Z,32.62
2023-05-14T13:48:09.143Z,31.28
2023-05-14T13:50:43.026Z,31.28
2023-05-14T13:56:07.112Z,29.23
2023-05-14T13:58:58.751Z,29.46
2023-05-14T14:01:29.222Z,30.66
2023-05-14T14:04:10.255Z,30.66
2023-05-14T14:06:37.790Z,30.21
2023-05-14T14:09:09.665Z,29.74
2023-05-14T14:11:43.453Z,29.79
2023-05-14T14:17:10.603Z,30.21
2023-05-14T14:19:42.768Z,30.28
2023-05-14T14:22:20.683Z,30.28
2023-05-14T14:25:02.566Z,30.87
2023-05-14T14:27:35.780Z,30.87
2023-05-14T14:30:12.386Z,32.44
2023-05-14T14:32:48.878Z,32.44
2023-05-14T14:38:20.530Z,33.25
2023-05-14T14:44:18.455Z,33.09
2023-05-14T14:46:51.919Z,33.09
2023-05-14T14:49:23.681Z,33.84
2023-05-14T14:51:55.753Z,32.03
2023-05-14T14:54:29.291Z,32.55
2023-05-14T14:57:06.783Z,31.57
2023-05-14T14:59:38.858Z,32.25
2023-05-14T15:02:12.198Z,32.33
2023-05-14T15:04:45.442Z,32.39
2023-05-14T15:07:20.799Z,32.52
2023-05-14T15:09:54.120Z,32.52
2023-05-14T15:12:26.977Z,32.42
2023-05-14T15:14:57.341Z,32.25
2023-05-14T15:17:30.261Z,31.81
2023-05-14T15:20:03.370Z,31.63
2023-05-14T15:22:36.064Z,31.77
2023-05-14T15:25:08.309Z,31.77
2023-05-14T15:27:38.577Z,31.72
2023-05-14T15:30:13.861Z,32.16
2023-05-14T15:33:02.085Z,31.61
2023-05-14T15:35:37.954Z,31.61
2023-05-14T15:38:18.227Z,32.09
2023-05-14T15:40:51.392Z,31.29
2023-05-14T15:43:22.060Z,31.98
2023-05-14T15:45:57.425Z,31.98
2023-05-14T15:48:36.686Z,31.81
2023-05-14T15:51:17.645Z,31.81
2023-05-14T15:53:48.065Z,36.83
2023-05-14T15:56:18.590Z,36.83
2023-05-14T15:58:50.555Z,38.98
2023-05-14T16:01:22.208Z,38.98
2023-05-14T16:03:55.146Z,43.00
2023-05-14T16:06:27.173Z,42.17
2023-05-14T16:08:57.825Z,39.88
2023-05-14T16:11:28.407Z,39.88
2023-05-14T16:14:04.905Z,41.86
2023-05-14T16:16:38.099Z,41.85
2023-05-14T16:19:12.816Z,41.58
2023-05-14T16:21:45.001Z,40.95
2023-05-14T16:24:18.772Z,44.05
2023-05-14T16:26:50.977Z,44.69
2023-05-14T16:29:21.391Z,46.24
2023-05-14T16:31:56.115Z,46.22
2023-05-14T16:34:28.657Z,46.22
2023-05-14T16:37:00.344Z,44.19
2023-05-14T16:39:33.356Z,45.01
2023-05-14T16:42:03.904Z,46.05
2023-05-14T16:44:34.332Z,44.48
2023-05-14T16:47:06.485Z,44.48
2023-05-14T16:49:39.493Z,45.04
2023-05-14T16:52:10.044Z,44.59
2023-05-14T16:54:43.094Z,45.12
2023-05-14T16:57:14.533Z,45.12
2023-05-14T17:00:05.516Z,44.67
2023-05-14T17:02:38.695Z,44.67
2023-05-14T17:05:10.888Z,46.13
2023-05-14T17:07:45.722Z,47.63
2023-05-14T17:10:23.779Z,47.63
2023-05-14T17:13:01.504Z,45.46
2023-05-14T17:15:32.304Z,45.46
2023-05-14T17:20:41.879Z,45.96
2023-05-14T17:23:12.425Z,45.06
2023-05-14T17:28:24.649Z,47.23
2023-05-14T17:30:57.417Z,43.28
2023-05-14T17:33:31.886Z,43.28
2023-05-14T17:36:16.598Z,43.39
2023-05-14T17:41:50.562Z,47.14
2023-05-14T17:44:22.980Z,48.46
2023-05-14T17:47:02.077Z,47.89
2023-05-14T17:51:01.478Z,45.02
2023-05-14T17:52:24.244Z,45.02
2023-05-14T17:54:54.782Z,47.25
2023-05-14T17:57:25.533Z,47.32
2023-05-14T17:59:56.098Z,46.71
2023-05-14T18:02:29.701Z,46.31
2023-05-14T18:05:03.641Z,46.60
2023-05-14T18:07:36.459Z,46.60
2023-05-14T18:10:10.493Z,47.88
2023-05-14T18:12:41.191Z,47.88
2023-05-14T18:15:13.236Z,48.49
2023-05-14T18:17:53.471Z,46.96
2023-05-14T18:20:24.137Z,46.30
2023-05-14T18:22:56.144Z,46.30
2023-05-14T18:25:28.793Z,46.50
2023-05-14T18:28:24.514Z,47.59
2023-05-14T18:30:50.730Z,49.49
2023-05-14T18:33:34.271Z,49.49
2023-05-14T18:36:02.512Z,46.32
2023-05-14T18:38:39.247Z,46.32
2023-05-14T18:41:09.544Z,48.92
2023-05-14T18:43:42.967Z,48.92
2023-05-14T18:46:15.030Z,47.77
2023-05-14T18:52:05.712Z,46.44
2023-05-14T18:54:51.127Z,46.44
2023-05-14T18:57:25.774Z,46.96
2023-05-14T19:00:02.224Z,46.72
2023-05-14T19:02:34.731Z,44.99
2023-05-14T19:05:08.679Z,43.19
2023-05-14T19:07:39.788Z,47.22
2023-05-14T19:10:12.990Z,42.82
2023-05-14T19:12:46.821Z,41.78
2023-05-14T19:15:19.115Z,41.78
2023-05-14T19:17:49.818Z,42.60
2023-05-14T19:20:20.561Z,40.92
2023-05-14T19:22:52.274Z,40.92
2023-05-14T19:25:24.613Z,39.28
2023-05-14T19:28:12.518Z,39.82
2023-05-14T19:30:43.652Z,39.19
2023-05-14T19:33:14.775Z,41.43
2023-05-14T19:35:47.549Z,41.43
2023-05-14T19:38:18.753Z,40.10
2023-05-14T19:40:51.494Z,40.10
2023-05-14T19:43:22.364Z,40.47
2023-05-14T19:45:54.425Z,40.47
2023-05-14T19:48:26.977Z,44.71
2023-05-14T19:50:58.448Z,47.43
2023-05-14T19:53:28.944Z,44.88
2023-05-14T19:56:01.126Z,44.88
2023-05-14T19:58:32.210Z,40.25
2023-05-14T20:01:02.774Z,40.25
2023-05-14T20:03:39.489Z,44.55
2023-05-14T20:06:14.411Z,49.69
2023-05-14T20:08:47.320Z,49.29
2023-05-14T20:11:23.860Z,49.06
2023-05-14T20:14:01.669Z,46.18
2023-05-14T20:16:32.486Z,46.18
2023-05-14T20:19:07.393Z,48.32
2023-05-14T20:21:39.235Z,48.59
2023-05-14T20:24:10.316Z,51.60
2023-05-14T20:26:40.739Z,52.17
2023-05-14T20:29:11.730Z,52.17
2023-05-14T20:31:47.873Z,54.88
2023-05-14T20:34:19.993Z,56.74
2023-05-14T20:36:53.542Z,56.74
2023-05-14T20:39:30.074Z,56.34
2023-05-14T20:42:04.908Z,54.40
2023-05-14T20:44:40.081Z,54.29
2023-05-14T20:47:10.565Z,54.29
2023-05-14T20:49:42.636Z,55.82
2023-05-14T20:52:16.416Z,54.71
2023-05-14T20:54:47.006Z,56.50
2023-05-14T20:57:18.428Z,56.50
2023-05-14T20:59:53.386Z,56.33
2023-05-14T21:02:25.482Z,56.23
2023-05-14T21:04:57.975Z,57.48
2023-05-14T21:07:29.029Z,57.48
2023-05-14T21:09:59.874Z,59.93
2023-05-14T21:12:30.561Z,59.67
2023-05-14T21:15:01.073Z,59.07
2023-05-14T21:17:33.776Z,59.07
2023-05-14T21:20:07.473Z,60.91
2023-05-14T21:22:38.128Z,56.67
2023-05-14T21:25:08.985Z,57.95
2023-05-14T21:27:40.160Z,57.95
2023-05-14T21:30:15.546Z,52.46
2023-05-14T21:32:46.029Z,59.54
2023-05-14T21:35:16.426Z,59.54
2023-05-14T21:37:47.030Z,63.05
2023-05-14T21:40:17.299Z,64.03
2023-05-14T21:42:47.786Z,64.03
2023-05-14T21:45:20.728Z,63.32
2023-05-14T21:47:50.699Z,58.46
2023-05-14T21:50:21.360Z,61.99
2023-05-14T21:52:51.806Z,62.85
2023-05-14T21:55:22.456Z,62.06
2023-05-14T21:57:54.112Z,62.06
2023-05-14T22:00:28.822Z,62.74
2023-05-14T22:03:07.808Z,52.10
2023-05-14T22:05:46.572Z,52.10
2023-05-14T22:08:17.327Z,52.97
2023-05-14T22:10:56.883Z,50.65
2023-05-14T22:13:27.338Z,50.65
2023-05-14T22:16:11.730Z,56.44
2023-05-14T22:21:05.643Z,57.29
2023-05-14T22:23:46.053Z,57.29
2023-05-14T22:27:01.162Z,57.14
2023-05-14T22:29:29.180Z,57.14
2023-05-14T22:31:59.639Z,57.40
2023-05-14T22:34:31.769Z,60.12
2023-05-14T22:37:02.261Z,56.27
2023-05-14T22:39:39.470Z,57.89
2023-05-14T22:42:06.435Z,57.96
2023-05-14T22:44:36.932Z,56.43
2023-05-14T22:47:07.559Z,56.43
2023-05-14T22:49:38.110Z,52.86
2023-05-14T22:52:09.989Z,59.61
2023-05-14T22:54:40.406Z,59.61
2023-05-14T22:57:10.772Z,52.95
2023-05-14T22:59:41.083Z,54.92
2023-05-14T23:02:12.718Z,52.71
2023-05-14T23:04:44.173Z,50.26
2023-05-14T23:07:15.179Z,53.55
2023-05-14T23:09:45.419Z,52.03
2023-05-14T23:12:15.751Z,51.19
2023-05-14T23:14:45.964Z,51.19
2023-05-14T23:17:23.575Z,49.98
2023-05-14T23:19:54.091Z,53.52
2023-05-14T23:22:24.236Z,54.89
2023-05-14T23:24:54.593Z,55.46
2023-05-14T23:27:25.012Z,55.46
2023-05-14T23:29:55.341Z,53.30
2023-05-14T23:32:25.872Z,55.93
2023-05-14T23:34:56.208Z,55.93
2023-05-14T23:37:26.531Z,57.98
2023-05-14T23:39:57.291Z,56.74
2023-05-14T23:42:27.619Z,53.50
2023-05-14T23:44:58.275Z,55.51
2023-05-14T23:47:28.725Z,56.35
2023-05-14T23:49:58.965Z,56.35
2023-05-14T23:52:29.295Z,60.58
2023-05-14T23:55:00.199Z,62.57
2023-05-14T23:57:30.560Z,62.57
